Time;durP1;ratioP1;P1;durP2;ratioP2;P2;SDS_P1;SDS_P2;PMS_P1;PMS_P2;Temp;Humidity;BMP_temperature;BMP_pressure;BME280_temperature;BME280_humidity;BME280_pressure;Samples;Min_cycle;Max_cycle;Signal;HPM_P1;HPM_P2
2022/12/01 00:00:53;;;;;;;87.35;36.70;;;5.60;99.90;;;;;;5013624;28;20460;-77
2022/12/01 00:03:19;;;;;;;89.63;37.67;;;6.10;99.90;;;;;;5013283;28;20433;-77
2022/12/01 00:05:45;;;;;;;83.15;38.33;;;5.60;99.90;;;;;;5012850;28;20042;-77
2022/12/01 00:08:10;;;;;;;92.38;38.03;;;5.60;99.90;;;;;;5013378;28;20038;-77
2022/12/01 00:10:36;;;;;;;93.40;36.95;;;5.60;99.90;;;;;;4995934;28;20042;-78
2022/12/01 00:13:04;;;;;;;81.18;36.88;;;5.60;99.90;;;;;;5012776;28;20049;-78
2022/12/01 00:15:35;;;;;;;90.97;37.83;;;5.60;99.90;;;;;;5013343;28;20137;-78
2022/12/01 00:18:02;;;;;;;82.13;37.28;;;5.60;99.90;;;;;;4978542;28;20050;-78
2022/12/01 00:20:29;;;;;;;88.95;38.15;;;5.60;99.90;;;;;;5012967;28;20393;-77
2022/12/01 00:22:54;;;;;;;88.20;37.85;;;5.60;99.90;;;;;;5012808;28;20512;-77
2022/12/01 00:25:20;;;;;;;94.07;38.90;;;5.70;99.90;;;;;;5012798;28;20045;-77
2022/12/01 00:27:48;;;;;;;92.80;37.53;;;5.60;99.90;;;;;;5012238;28;20060;-77
2022/12/01 00:30:15;;;;;;;91.25;37.38;;;5.60;99.90;;;;;;5012590;28;20046;-78
2022/12/01 00:32:41;;;;;;;92.88;37.13;;;5.60;99.90;;;;;;5012796;28;20125;-77
2022/12/01 00:35:07;;;;;;;95.05;37.88;;;5.60;99.90;;;;;;5012266;28;20173;-77
2022/12/01 00:37:33;;;;;;;97.22;40.33;;;5.60;99.90;;;;;;5012498;28;20073;-77
2022/12/01 00:39:59;;;;;;;85.03;36.25;;;5.60;99.90;;;;;;5012852;28;20045;-77
2022/12/01 00:42:25;;;;;;;96.15;39.33;;;5.60;99.90;;;;;;5012597;28;20404;-76
2022/12/01 00:44:50;;;;;;;99.50;39.17;;;5.60;99.90;;;;;;5012075;28;20092;-77
2022/12/01 00:47:16;;;;;;;98.28;39.80;;;5.60;99.90;;;;;;5012298;28;20056;-77
2022/12/01 00:49:44;;;;;;;89.80;40.88;;;5.60;99.90;;;;;;5012214;28;20049;-76
2022/12/01 00:52:10;;;;;;;94.55;40.03;;;5.50;99.90;;;;;;5012418;28;20058;-76
2022/12/01 00:54:36;;;;;;;98.68;41.38;;;5.50;99.90;;;;;;4994374;28;20076;-76
2022/12/01 00:57:02;;;;;;;98.35;39.17;;;5.50;99.90;;;;;;5012273;28;20050;-77
2022/12/01 00:59:28;;;;;;;97.95;40.13;;;5.50;99.90;;;;;;4994062;28;20050;-77
2022/12/01 01:01:53;;;;;;;98.40;40.03;;;5.50;99.90;;;;;;5012476;28;20409;-77
2022/12/01 01:04:19;;;;;;;98.10;41.05;;;5.50;99.90;;;;;;5012411;28;20048;-78
2022/12/01 01:06:45;;;;;;;98.38;41.42;;;5.50;99.90;;;;;;5012453;28;20049;-76
2022/12/01 01:09:12;;;;;;;98.07;42.70;;;5.50;99.90;;;;;;5012023;28;20042;-77
2022/12/01 01:11:38;;;;;;;99.20;40.58;;;5.50;99.90;;;;;;5012144;28;20049;-77
2022/12/01 01:14:04;;;;;;;91.13;40.25;;;5.50;99.90;;;;;;5011761;28;20049;-76
2022/12/01 01:16:30;;;;;;;95.35;40.22;;;5.50;99.90;;;;;;5012160;28;20060;-77
2022/12/01 01:18:57;;;;;;;103.10;42.00;;;5.50;99.90;;;;;;5012386;28;20408;-76
2022/12/01 01:21:23;;;;;;;93.82;39.95;;;5.50;99.90;;;;;;4994207;28;20057;-76
2022/12/01 01:23:50;;;;;;;93.90;41.08;;;5.50;99.90;;;;;;5012276;28;20050;-77
2022/12/01 01:26:25;;;;;;;104.20;41.90;;;5.50;99.90;;;;;;5012020;28;20046;-76
2022/12/01 01:28:52;;;;;;;102.25;41.78;;;5.50;99.90;;;;;;5011783;28;20077;-77
2022/12/01 01:31:20;;;;;;;117.38;43.00;;;5.50;99.90;;;;;;5011466;28;20116;-76
2022/12/01 01:33:46;;;;;;;96.47;40.08;;;5.50;99.90;;;;;;5011897;28;20038;-76
2022/12/01 01:36:13;;;;;;;112.95;43.33;;;5.50;99.90;;;;;;5011681;28;20076;-77
2022/12/01 01:38:39;;;;;;;110.65;43.30;;;5.50;99.90;;;;;;5011849;28;20037;-76
2022/12/01 01:41:06;;;;;;;105.18;42.50;;;5.50;99.90;;;;;;5011549;28;20504;-76
2022/12/01 01:43:43;;;;;;;113.35;44.22;;;5.50;99.90;;;;;;5011459;28;20065;-77
2022/12/01 01:46:14;;;;;;;99.78;43.17;;;5.50;99.90;;;;;;5010666;28;20077;-77
2022/12/01 01:48:44;;;;;;;104.60;42.13;;;5.50;99.90;;;;;;5011605;28;20104;-76
2022/12/01 01:51:11;;;;;;;98.35;41.72;;;5.50;99.90;;;;;;4998231;28;20076;-77
2022/12/01 01:53:37;;;;;;;112.47;43.35;;;5.50;99.90;;;;;;5029362;28;20395;-77
2022/12/01 01:56:05;;;;;;;104.43;42.40;;;5.50;99.90;;;;;;5030822;28;20148;-76
2022/12/01 01:58:32;;;;;;;97.82;40.10;;;5.50;99.90;;;;;;5031148;28;20439;-76
2022/12/01 02:00:57;;;;;;;105.25;41.10;;;5.50;99.90;;;;;;5030746;28;20103;-76
2022/12/01 02:03:25;;;;;;;110.43;43.53;;;5.50;99.90;;;;;;5028890;28;20073;-76
2022/12/01 02:05:50;;;;;;;109.53;43.65;;;5.50;99.90;;;;;;5030853;28;20060;-76
2022/12/01 02:08:16;;;;;;;107.10;42.03;;;5.50;99.90;;;;;;5030751;28;20045;-78
2022/12/01 02:11:03;;;;;;;104.35;41.42;;;5.50;99.90;;;;;;5030570;28;20502;-77
2022/12/01 02:13:51;;;;;;;105.40;44.28;;;5.50;99.90;;;;;;5029150;28;20034;-76
2022/12/01 02:16:28;;;;;;;103.90;42.83;;;5.50;99.90;;;;;;5030541;28;20084;-77
2022/12/01 02:19:10;;;;;;;117.22;45.03;;;5.40;99.90;;;;;;5012788;28;20041;-76
2022/12/01 02:21:52;;;;;;;103.82;43.20;;;5.50;99.90;;;;;;5012702;28;20056;-77
2022/12/01 02:25:01;;;;;;;105.30;40.70;;;5.50;99.90;;;;;;5028709;28;20038;-77
2022/12/01 02:27:39;;;;;;;100.47;42.10;;;5.50;99.90;;;;;;5012874;28;20057;-76
2022/12/01 02:30:06;;;;;;;108.05;42.97;;;5.50;99.90;;;;;;5030169;28;20456;-77
2022/12/01 02:32:38;;;;;;;116.88;44.60;;;5.40;99.90;;;;;;5012301;28;20092;-77
2022/12/01 02:35:29;;;;;;;105.97;43.97;;;5.50;99.90;;;;;;5028537;28;20069;-77
2022/12/01 02:38:07;;;;;;;113.72;42.80;;;5.50;99.90;;;;;;4969213;28;20058;-77
2022/12/01 02:40:55;;;;;;;106.30;42.63;;;5.50;99.90;;;;;;4969386;28;20057;-77
2022/12/01 02:43:44;;;;;;;116.18;44.20;;;5.40;99.90;;;;;;4969367;28;20137;-77
2022/12/01 02:46:25;;;;;;;104.10;43.33;;;5.40;99.90;;;;;;4967104;28;20082;-76
2022/12/01 02:48:54;;;;;;;111.07;44.35;;;5.40;99.90;;;;;;4968518;28;20050;-77
2022/12/01 02:51:29;;;;;;;104.28;43.67;;;5.40;99.90;;;;;;4963318;28;20403;-77
2022/12/01 02:53:58;;;;;;;111.72;42.88;;;5.40;99.90;;;;;;4968758;28;20074;-77
2022/12/01 02:56:25;;;;;;;103.07;42.15;;;5.40;99.90;;;;;;4972444;28;20726;-78
2022/12/01 02:58:50;;;;;;;106.50;42.95;;;5.40;99.90;;;;;;4952951;28;20225;-77
2022/12/01 03:01:34;;;;;;;102.88;42.22;;;5.40;99.90;;;;;;4969374;28;20485;-77
2022/12/01 03:04:11;;;;;;;101.68;43.00;;;5.40;99.90;;;;;;4968379;28;20150;-77
2022/12/01 03:06:58;;;;;;;99.93;41.33;;;5.40;99.90;;;;;;4968278;28;20058;-78
2022/12/01 03:09:49;;;;;;;107.53;41.78;;;5.40;99.90;;;;;;4968527;28;20047;-77
2022/12/01 03:12:20;;;;;;;99.70;39.95;;;5.30;99.90;;;;;;4969393;28;20061;-77
2022/12/01 03:15:19;;;;;;;103.60;41.15;;;5.30;99.90;;;;;;4969503;28;20460;-77
2022/12/01 03:18:14;;;;;;;101.72;40.65;;;5.30;99.90;;;;;;5009998;28;20057;-76
2022/12/01 03:20:53;;;;;;;106.70;44.00;;;5.30;99.90;;;;;;4929203;29;20111;-78
2022/12/01 03:23:23;;;;;;;116.43;41.95;;;5.30;99.90;;;;;;4912113;29;20096;-77
2022/12/01 03:25:54;;;;;;;106.57;42.25;;;5.30;99.90;;;;;;4929342;29;20474;-78
2022/12/01 03:28:28;;;;;;;103.10;41.78;;;5.30;99.90;;;;;;4929175;29;20054;-77
2022/12/01 03:30:58;;;;;;;106.72;42.70;;;5.30;99.90;;;;;;4929154;29;20138;-77
2022/12/01 03:33:31;;;;;;;102.68;41.72;;;5.30;99.90;;;;;;4928452;29;20055;-76
2022/12/01 03:36:02;;;;;;;103.28;42.20;;;5.30;99.90;;;;;;4929165;29;20052;-77
2022/12/01 03:38:29;;;;;;;98.90;40.95;;;5.30;99.90;;;;;;4914050;29;20208;-76
2022/12/01 03:41:03;;;;;;;108.90;43.47;;;5.30;99.90;;;;;;4929723;29;20056;-77
2022/12/01 03:43:35;;;;;;;105.40;42.63;;;5.30;99.90;;;;;;4929323;29;20064;-76
2022/12/01 03:46:18;;;;;;;106.10;42.53;;;5.30;99.90;;;;;;4929498;29;20055;-76
2022/12/01 03:48:44;;;;;;;111.53;43.30;;;5.30;99.90;;;;;;4929738;29;20050;-77
2022/12/01 03:51:22;;;;;;;119.55;44.95;;;5.30;99.90;;;;;;4934022;29;20134;-77
2022/12/01 03:53:53;;;;;;;109.80;43.55;;;5.30;99.90;;;;;;4947222;29;20051;-77
2022/12/01 03:56:23;;;;;;;108.22;44.00;;;5.30;99.90;;;;;;4960460;28;20058;-76
2022/12/01 03:58:51;;;;;;;105.45;42.35;;;5.30;99.90;;;;;;5004878;28;20050;-77
2022/12/01 04:01:18;;;;;;;110.75;43.78;;;5.30;99.90;;;;;;5006195;28;20053;-77
2022/12/01 04:03:46;;;;;;;121.22;44.97;;;5.30;99.90;;;;;;5008696;28;20068;-77
2022/12/01 04:06:12;;;;;;;118.32;43.40;;;5.30;99.90;;;;;;5008499;28;20054;-78
2022/12/01 04:08:38;;;;;;;109.22;43.03;;;5.30;99.90;;;;;;5010016;28;20057;-78
2022/12/01 04:13:52;;;;;;;114.78;42.90;;;5.80;99.90;;;;;;5012897;28;20049;-78
2022/12/01 04:16:17;;;;;;;103.32;42.22;;;5.30;99.90;;;;;;5005189;28;20096;-77
2022/12/01 04:18:43;;;;;;;108.57;44.13;;;5.50;99.90;;;;;;5012549;28;20046;-76
2022/12/01 04:21:08;;;;;;;116.40;44.97;;;5.30;99.90;;;;;;5012707;28;20069;-77
2022/12/01 04:26:18;;;;;;;112.00;42.87;;;5.30;99.90;;;;;;5002107;28;20141;-76
2022/12/01 04:28:44;;;;;;;113.75;43.05;;;5.20;99.90;;;;;;5012813;28;20116;-77
2022/12/01 04:31:10;;;;;;;105.43;40.10;;;5.30;99.90;;;;;;4995266;28;20128;-77
2022/12/01 04:33:35;;;;;;;111.30;43.15;;;5.30;99.90;;;;;;5012875;28;20054;-78
2022/12/01 04:36:01;;;;;;;103.40;42.67;;;5.30;99.90;;;;;;4995287;28;20058;-77
2022/12/01 04:38:27;;;;;;;107.60;43.13;;;5.30;99.90;;;;;;5004751;28;20045;-78
2022/12/01 04:40:52;;;;;;;112.13;42.80;;;5.30;99.90;;;;;;5012328;28;20065;-77
2022/12/01 04:43:18;;;;;;;103.20;40.90;;;5.30;99.90;;;;;;5012586;28;20053;-78
2022/12/01 04:45:44;;;;;;;104.63;40.90;;;5.30;99.90;;;;;;5011914;28;20072;-77
2022/12/01 04:48:10;;;;;;;106.38;40.75;;;5.30;99.90;;;;;;5010577;28;20081;-78
2022/12/01 04:50:36;;;;;;;95.00;38.10;;;5.30;99.90;;;;;;5012043;28;20077;-78
2022/12/01 04:53:02;;;;;;;102.45;39.33;;;5.30;99.90;;;;;;5012617;28;20060;-78
2022/12/01 04:55:28;;;;;;;97.78;39.10;;;5.30;99.90;;;;;;4995619;28;20042;-77
2022/12/01 04:57:53;;;;;;;104.72;40.40;;;5.20;99.90;;;;;;4991127;28;20124;-78
2022/12/01 05:00:19;;;;;;;103.03;39.72;;;5.20;99.90;;;;;;5012239;28;20045;-78
2022/12/01 05:02:45;;;;;;;107.53;41.70;;;5.30;99.90;;;;;;4994708;28;20080;-77
2022/12/01 05:05:11;;;;;;;106.82;40.42;;;5.20;99.90;;;;;;5011321;28;20041;-77
2022/12/01 05:07:37;;;;;;;103.65;40.63;;;5.20;99.90;;;;;;4993851;28;20057;-78
2022/12/01 05:10:03;;;;;;;103.53;41.03;;;5.20;99.90;;;;;;5010024;28;20173;-77
2022/12/01 05:12:29;;;;;;;107.90;40.95;;;5.20;99.90;;;;;;5011904;28;20065;-77
2022/12/01 05:14:55;;;;;;;106.22;39.85;;;5.20;99.90;;;;;;5011892;28;20042;-79
2022/12/01 05:17:20;;;;;;;92.65;37.72;;;5.20;99.90;;;;;;4994426;28;20086;-78
2022/12/01 05:22:51;;;;;;;93.13;37.70;;;5.20;99.90;;;;;;4961660;28;20401;-78
2022/12/01 05:25:18;;;;;;;97.93;38.90;;;5.20;99.90;;;;;;4951726;28;20051;-77
2022/12/01 05:27:44;;;;;;;99.70;38.00;;;5.20;99.90;;;;;;4948394;28;20568;-77
2022/12/01 05:30:10;;;;;;;99.30;38.17;;;5.20;99.90;;;;;;4970547;28;20141;-78
2022/12/01 05:32:36;;;;;;;88.65;35.08;;;5.20;99.90;;;;;;4970446;28;20478;-78
2022/12/01 05:35:01;;;;;;;99.70;37.63;;;5.10;99.90;;;;;;4970616;28;20055;-77
2022/12/01 05:37:32;;;;;;;89.57;37.17;;;5.10;99.90;;;;;;4970082;28;20047;-77
2022/12/01 05:39:57;;;;;;;100.78;39.13;;;5.00;99.90;;;;;;4964822;28;20107;-78
2022/12/01 05:42:23;;;;;;;82.40;36.13;;;5.20;99.90;;;;;;4950702;29;20051;-78
2022/12/01 05:44:49;;;;;;;88.95;35.90;;;4.90;99.90;;;;;;4950632;28;20043;-77
2022/12/01 05:47:15;;;;;;;75.28;32.58;;;4.80;99.90;;;;;;4956596;28;20063;-77
2022/12/01 05:49:40;;;;;;;65.60;29.40;;;4.80;99.90;;;;;;4968246;28;20166;-77
2022/12/01 05:52:06;;;;;;;64.45;29.17;;;4.60;99.90;;;;;;4969724;28;20066;-78
2022/12/01 05:54:31;;;;;;;66.80;30.35;;;4.60;99.90;;;;;;4978486;28;20398;-76
2022/12/01 05:56:57;;;;;;;73.78;31.63;;;4.50;99.90;;;;;;4991330;28;20050;-77
2022/12/01 05:59:23;;;;;;;64.40;27.58;;;4.40;99.90;;;;;;4992620;28;20118;-77
2022/12/01 06:01:48;;;;;;;59.30;27.05;;;4.30;99.90;;;;;;4991476;28;20425;-78
2022/12/01 06:04:14;;;;;;;56.33;25.80;;;4.20;99.90;;;;;;4974065;28;20038;-77
2022/12/01 06:06:39;;;;;;;58.65;24.95;;;4.10;99.90;;;;;;4991556;28;20042;-75
2022/12/01 06:09:05;;;;;;;60.15;25.60;;;4.00;99.90;;;;;;4974381;28;20061;-78
2022/12/01 06:11:31;;;;;;;54.40;24.73;;;3.90;99.90;;;;;;4992268;28;20050;-77
2022/12/01 06:13:56;;;;;;;58.03;26.05;;;3.80;99.90;;;;;;4991492;28;20081;-77
2022/12/01 06:16:22;;;;;;;59.30;23.95;;;3.80;99.90;;;;;;4991206;28;20378;-77
2022/12/01 06:18:47;;;;;;;53.75;24.27;;;3.70;99.90;;;;;;4973894;28;20046;-77
2022/12/01 06:21:13;;;;;;;63.88;25.95;;;3.60;99.90;;;;;;4992325;28;20034;-77
2022/12/01 06:23:39;;;;;;;68.80;28.85;;;3.50;99.90;;;;;;4991517;28;20162;-78
2022/12/01 06:26:04;;;;;;;72.13;29.77;;;3.40;99.90;;;;;;4991244;28;20050;-77
2022/12/01 06:28:30;;;;;;;63.88;29.50;;;3.30;99.90;;;;;;4991458;28;20038;-77
2022/12/01 06:30:55;;;;;;;57.10;25.63;;;3.20;99.90;;;;;;4992454;28;20057;-77
2022/12/01 06:33:21;;;;;;;48.03;23.30;;;3.20;99.90;;;;;;4990907;28;20493;-78
2022/12/01 06:35:47;;;;;;;40.00;20.40;;;3.10;99.90;;;;;;4991321;28;20046;-77
2022/12/01 06:38:12;;;;;;;40.97;19.48;;;3.10;99.90;;;;;;4973839;28;20082;-77
2022/12/01 06:40:38;;;;;;;39.63;18.67;;;3.40;99.90;;;;;;4991027;28;20057;-78
2022/12/01 06:43:04;;;;;;;50.78;20.02;;;2.90;99.90;;;;;;4970639;28;20476;-77
2022/12/01 06:45:30;;;;;;;55.65;19.70;;;3.40;99.90;;;;;;4990946;28;20046;-78
2022/12/01 06:47:56;;;;;;;237.07;20.77;;;2.70;99.90;;;;;;4990959;28;20121;-77
2022/12/01 06:50:22;;;;;;;46.53;20.80;;;2.60;99.90;;;;;;4995631;28;20061;-78
2022/12/01 06:52:48;;;;;;;32.47;17.88;;;2.60;99.90;;;;;;5020869;28;20156;-77
2022/12/01 06:55:14;;;;;;;30.08;15.60;;;2.60;99.90;;;;;;5012950;28;20128;-77
2022/12/01 06:57:40;;;;;;;29.55;13.55;;;2.50;99.90;;;;;;4992355;28;20088;-78
2022/12/01 07:00:07;;;;;;;23.52;13.38;;;2.40;99.90;;;;;;5010203;28;20056;-77
2022/12/01 07:02:33;;;;;;;31.35;15.40;;;2.40;99.90;;;;;;5010294;28;20046;-75
2022/12/01 07:04:59;;;;;;;27.15;15.50;;;2.30;99.90;;;;;;5028294;28;20060;-77
2022/12/01 07:07:24;;;;;;;22.40;11.93;;;2.20;99.90;;;;;;5011770;28;20144;-76
2022/12/01 07:09:50;;;;;;;23.67;11.68;;;2.20;99.90;;;;;;5012274;28;20095;-77
2022/12/01 07:12:15;;;;;;;31.50;13.85;;;2.10;99.90;;;;;;5029821;28;20111;-78
2022/12/01 07:14:41;;;;;;;33.05;16.38;;;2.00;99.90;;;;;;5027780;28;20472;-77
2022/12/01 07:17:08;;;;;;;32.58;15.88;;;2.10;99.90;;;;;;5030141;28;20045;-77
2022/12/01 07:19:34;;;;;;;28.40;14.57;;;2.00;99.90;;;;;;5010301;28;20041;-77
2022/12/01 07:22:00;;;;;;;37.92;17.75;;;1.90;99.90;;;;;;5030096;28;20415;-77
2022/12/01 07:24:25;;;;;;;76.72;20.10;;;1.90;99.90;;;;;;5027714;28;20041;-77
2022/12/01 07:26:51;;;;;;;42.83;18.98;;;1.90;99.90;;;;;;5017872;28;20132;-78
2022/12/01 07:29:17;;;;;;;40.60;18.83;;;1.80;99.90;;;;;;5009789;28;20048;-77
2022/12/01 07:31:43;;;;;;;117.70;20.50;;;1.80;99.90;;;;;;5010110;28;20330;-78
2022/12/01 07:34:12;;;;;;;123.20;20.52;;;2.70;99.90;;;;;;4991757;28;20045;-77
2022/12/01 07:36:37;;;;;;;116.25;18.58;;;1.70;99.90;;;;;;5009892;28;20076;-78
2022/12/01 07:39:05;;;;;;;57.80;16.85;;;1.70;99.90;;;;;;5009835;28;20132;-77
2022/12/01 07:41:31;;;;;;;57.50;16.77;;;1.60;99.90;;;;;;5009637;28;20210;-78
2022/12/01 07:43:57;;;;;;;44.05;17.10;;;1.60;99.90;;;;;;4993164;28;20136;-77
2022/12/01 07:46:25;;;;;;;58.83;16.52;;;1.50;99.90;;;;;;5013589;28;20141;-78
2022/12/01 07:48:55;;;;;;;25.45;13.68;;;1.50;99.90;;;;;;5013260;28;20073;-77
2022/12/01 07:51:22;;;;;;;25.38;14.00;;;2.50;99.90;;;;;;4994907;28;20042;-77
2022/12/01 07:53:50;;;;;;;25.90;13.80;;;1.40;99.90;;;;;;5013760;28;20053;-78
2022/12/01 07:56:17;;;;;;;18.77;11.80;;;1.40;99.90;;;;;;5013735;28;20404;-78
2022/12/01 07:58:43;;;;;;;26.63;13.57;;;1.60;99.90;;;;;;5013493;28;20050;-78
2022/12/01 08:01:17;;;;;;;23.52;12.52;;;1.30;99.90;;;;;;5005723;28;20072;-77
2022/12/01 08:03:43;;;;;;;22.50;12.10;;;1.30;99.90;;;;;;4993722;28;20053;-78
2022/12/01 08:06:10;;;;;;;23.38;13.55;;;1.30;99.90;;;;;;4984095;28;20416;-78
2022/12/01 08:08:37;;;;;;;25.90;13.25;;;1.30;99.90;;;;;;5010822;28;20072;-77
2022/12/01 08:11:08;;;;;;;24.38;14.05;;;1.30;99.90;;;;;;5011139;28;20497;-77
2022/12/01 08:13:34;;;;;;;27.70;14.60;;;1.30;99.90;;;;;;5012474;28;20065;-77
2022/12/01 08:16:03;;;;;;;24.98;15.02;;;1.20;99.90;;;;;;4993823;28;20158;-77
2022/12/01 08:18:29;;;;;;;28.92;15.05;;;1.20;99.90;;;;;;5005301;28;20046;-76
2022/12/01 08:20:58;;;;;;;27.20;14.75;;;1.70;99.90;;;;;;5011910;28;20046;-77
2022/12/01 08:23:23;;;;;;;28.48;14.75;;;1.30;99.90;;;;;;5010162;28;20052;-77
2022/12/01 08:25:51;;;;;;;30.90;15.52;;;1.30;99.90;;;;;;5010262;28;20042;-77
2022/12/01 08:28:17;;;;;;;25.95;14.98;;;1.20;99.90;;;;;;5012583;28;20045;-76
2022/12/01 08:30:43;;;;;;;28.08;15.10;;;1.30;99.90;;;;;;5011703;28;20513;-75
2022/12/01 08:33:09;;;;;;;22.67;14.55;;;1.90;99.90;;;;;;4978922;28;20048;-77
2022/12/01 08:35:36;;;;;;;26.38;14.57;;;1.30;99.90;;;;;;5012724;28;20495;-77
2022/12/01 08:38:02;;;;;;;27.13;15.00;;;1.30;99.90;;;;;;5011956;28;20099;-76
2022/12/01 08:40:27;;;;;;;25.83;14.88;;;1.30;99.90;;;;;;5012516;28;20077;-78
2022/12/01 08:42:53;;;;;;;32.45;17.40;;;1.30;99.90;;;;;;4992640;28;20049;-78
2022/12/01 08:45:19;;;;;;;31.13;17.52;;;1.30;99.90;;;;;;4994502;28;20129;-78
2022/12/01 08:47:45;;;;;;;30.00;17.38;;;1.30;99.90;;;;;;5011469;28;20085;-78
2022/12/01 08:50:10;;;;;;;26.50;16.15;;;1.30;99.90;;;;;;4993981;28;20483;-78
2022/12/01 08:52:36;;;;;;;30.77;17.17;;;1.40;99.90;;;;;;4996121;28;20053;-79
2022/12/01 08:55:03;;;;;;;28.00;15.38;;;1.40;99.90;;;;;;5011838;28;20093;-78
2022/12/01 08:57:35;;;;;;;33.58;17.65;;;1.40;99.90;;;;;;5007908;28;20117;-78
2022/12/01 09:00:01;;;;;;;34.88;18.58;;;1.50;99.90;;;;;;5003437;28;20050;-77
2022/12/01 09:02:27;;;;;;;38.28;18.95;;;1.50;99.90;;;;;;5002713;28;20069;-77
2022/12/01 09:04:53;;;;;;;37.20;17.35;;;1.50;99.90;;;;;;4991435;28;20116;-77
2022/12/01 09:07:19;;;;;;;29.98;16.20;;;1.50;99.90;;;;;;5008911;28;20077;-76
2022/12/01 09:09:45;;;;;;;35.80;17.65;;;1.60;99.90;;;;;;5011393;28;20053;-77
2022/12/01 09:12:12;;;;;;;44.17;18.52;;;1.70;99.90;;;;;;5010078;28;20124;-76
2022/12/01 09:14:46;;;;;;;39.33;18.73;;;1.70;99.90;;;;;;5010363;28;20539;-77
2022/12/01 09:17:13;;;;;;;42.33;19.65;;;1.80;99.90;;;;;;5006387;28;20116;-78
2022/12/01 09:19:41;;;;;;;44.72;20.33;;;1.90;99.90;;;;;;5006320;28;20130;-77
2022/12/01 09:22:08;;;;;;;40.88;19.58;;;2.20;99.90;;;;;;5011583;28;20049;-78
2022/12/01 09:24:34;;;;;;;44.80;21.45;;;2.00;99.90;;;;;;5010022;28;20120;-77
2022/12/01 09:27:02;;;;;;;48.65;22.33;;;2.20;99.90;;;;;;5007861;28;20050;-78
2022/12/01 09:29:28;;;;;;;41.90;21.23;;;2.30;99.90;;;;;;5011087;28;20117;-80
2022/12/01 09:32:00;;;;;;;47.28;22.40;;;2.40;99.90;;;;;;5010792;28;20510;-78
2022/12/01 09:34:27;;;;;;;40.97;21.00;;;2.50;99.90;;;;;;5008643;28;20122;-77
2022/12/01 09:36:57;;;;;;;44.42;21.33;;;2.70;99.90;;;;;;5002160;28;20513;-78
2022/12/01 09:39:23;;;;;;;48.92;23.17;;;2.90;99.90;;;;;;4991711;28;20046;-78
2022/12/01 09:41:56;;;;;;;47.90;23.52;;;3.10;99.90;;;;;;4991400;28;20139;-78
2022/12/01 09:44:29;;;;;;;49.78;23.25;;;3.30;99.90;;;;;;4995966;28;20121;-78
2022/12/01 09:46:59;;;;;;;44.85;22.58;;;3.50;99.90;;;;;;4990121;28;20053;-79
2022/12/01 09:49:34;;;;;;;43.72;20.98;;;4.20;99.90;;;;;;5010375;28;20081;-79
2022/12/01 09:52:00;;;;;;;44.63;21.83;;;3.90;99.90;;;;;;4998030;28;20054;-78
2022/12/01 09:54:27;;;;;;;45.90;22.02;;;4.10;99.90;;;;;;5030988;28;20077;-77
2022/12/01 09:56:54;;;;;;;49.95;23.55;;;4.30;99.90;;;;;;5030615;28;20049;-79
2022/12/01 09:59:23;;;;;;;44.00;22.08;;;4.60;99.90;;;;;;5029670;28;20049;-78
2022/12/01 10:02:02;;;;;;;43.63;22.10;;;4.80;99.90;;;;;;4993574;28;20586;-79
2022/12/01 10:04:34;;;;;;;45.15;23.67;;;5.10;99.90;;;;;;5010929;28;20054;-78
2022/12/01 10:07:23;;;;;;;42.58;22.65;;;5.30;99.90;;;;;;4992889;28;20488;-78
2022/12/01 10:09:52;;;;;;;45.67;22.40;;;5.60;99.90;;;;;;5010997;28;20421;-78
2022/12/01 10:12:22;;;;;;;43.10;22.38;;;5.90;99.90;;;;;;5011169;28;20057;-80
2022/12/01 10:14:49;;;;;;;39.20;21.88;;;6.10;99.90;;;;;;4993507;28;20050;-80
2022/12/01 10:17:28;;;;;;;39.58;21.00;;;6.30;99.90;;;;;;5011432;28;20149;-79
2022/12/01 10:20:17;;;;;;;39.53;21.80;;;6.50;99.90;;;;;;5010814;28;20057;-80
2022/12/01 10:22:48;;;;;;;39.67;22.42;;;6.70;99.90;;;;;;5010920;28;20712;-79
2022/12/01 10:25:26;;;;;;;38.33;21.23;;;6.90;99.90;;;;;;5010898;28;20046;-78
2022/12/01 10:27:58;;;;;;;37.83;20.38;;;7.10;99.90;;;;;;5010772;28;20045;-79
2022/12/01 10:30:24;;;;;;;36.35;20.55;;;7.20;99.90;;;;;;5010753;28;20507;-80
2022/12/01 10:32:56;;;;;;;34.50;20.05;;;7.40;99.90;;;;;;5010513;28;20041;-80
2022/12/01 10:35:26;;;;;;;36.67;20.20;;;7.50;99.90;;;;;;5010446;28;20072;-79
2022/12/01 10:37:57;;;;;;;35.50;20.33;;;7.70;99.90;;;;;;5010424;28;20042;-79
2022/12/01 10:40:25;;;;;;;38.85;20.52;;;7.90;99.90;;;;;;5010616;28;20159;-79
2022/12/01 10:42:52;;;;;;;34.42;19.50;;;8.00;99.90;;;;;;5010548;28;20046;-80
2022/12/01 10:45:23;;;;;;;35.28;20.40;;;8.10;99.90;;;;;;5010404;28;20042;-78
2022/12/01 10:48:14;;;;;;;36.88;20.88;;;8.20;99.90;;;;;;5010444;28;20512;-78
2022/12/01 10:50:42;;;;;;;31.80;20.30;;;8.30;99.90;;;;;;5010528;28;20193;-78
2022/12/01 10:53:35;;;;;;;36.53;20.55;;;8.50;99.90;;;;;;5010445;28;20148;-78
2022/12/01 10:56:10;;;;;;;35.78;20.33;;;8.60;99.90;;;;;;5010247;28;20053;-79
2022/12/01 10:58:42;;;;;;;33.60;19.35;;;8.80;99.90;;;;;;4992666;28;20049;-79
2022/12/01 11:01:17;;;;;;;37.33;20.27;;;8.80;99.90;;;;;;5010365;28;20038;-80
2022/12/01 11:03:47;;;;;;;32.78;19.27;;;9.00;99.90;;;;;;5010029;28;20046;-78
2022/12/01 11:06:13;;;;;;;29.55;18.38;;;9.20;99.90;;;;;;5009646;28;20132;-77
2022/12/01 11:09:00;;;;;;;32.28;18.92;;;9.10;99.90;;;;;;5009926;28;20132;-78
2022/12/01 11:11:33;;;;;;;30.58;18.77;;;9.40;99.90;;;;;;5010289;28;20092;-77
2022/12/01 11:14:03;;;;;;;29.88;18.50;;;9.00;99.90;;;;;;5010152;28;20507;-78
2022/12/01 11:16:41;;;;;;;36.58;20.38;;;8.90;99.90;;;;;;4992166;28;20052;-78
2022/12/01 11:19:36;;;;;;;31.33;18.92;;;9.00;99.90;;;;;;5013062;28;20054;-78
2022/12/01 11:22:19;;;;;;;37.15;20.25;;;9.00;99.90;;;;;;4952891;29;20170;-77
2022/12/01 11:24:56;;;;;;;30.73;18.45;;;9.00;99.90;;;;;;4953248;29;20125;-76
2022/12/01 11:27:31;;;;;;;33.00;19.42;;;8.90;99.90;;;;;;4958456;28;20160;-78
2022/12/01 11:30:25;;;;;;;30.85;19.92;;;9.10;99.90;;;;;;4980295;28;20042;-79
2022/12/01 11:32:54;;;;;;;35.08;20.88;;;9.10;99.90;;;;;;4973984;28;20066;-77
2022/12/01 11:35:23;;;;;;;34.78;20.83;;;9.20;99.90;;;;;;4991461;28;20549;-78
2022/12/01 11:37:52;;;;;;;38.10;21.38;;;9.10;99.90;;;;;;4991367;28;20050;-79
2022/12/01 11:40:23;;;;;;;42.33;23.73;;;9.20;99.90;;;;;;4991686;28;20062;-78
2022/12/01 11:42:52;;;;;;;43.10;24.05;;;9.30;99.90;;;;;;4989834;28;20089;-78
2022/12/01 11:45:25;;;;;;;40.17;22.27;;;9.40;99.90;;;;;;4960133;28;20143;-78
2022/12/01 11:47:59;;;;;;;37.13;22.02;;;9.50;99.90;;;;;;4944946;28;20061;-79
2022/12/01 11:50:29;;;;;;;32.67;19.98;;;9.40;99.90;;;;;;4989828;28;20507;-78
2022/12/01 11:52:54;;;;;;;32.60;19.73;;;9.50;99.90;;;;;;4988954;28;20046;-79
2022/12/01 11:55:22;;;;;;;38.25;20.73;;;9.50;99.90;;;;;;4991234;28;20093;-80
2022/12/01 11:57:51;;;;;;;37.10;21.58;;;9.60;99.90;;;;;;4995035;28;20061;-78
2022/12/01 12:00:21;;;;;;;36.78;21.63;;;9.70;99.90;;;;;;5013273;28;20126;-81
2022/12/01 12:02:47;;;;;;;37.28;22.48;;;9.70;99.90;;;;;;5013373;28;20492;-80
2022/12/01 12:05:41;;;;;;;37.47;22.85;;;9.80;99.90;;;;;;5012773;28;20080;-78
2022/12/01 12:08:35;;;;;;;39.90;23.15;;;9.90;99.90;;;;;;5012939;28;20054;-81
2022/12/01 12:11:16;;;;;;;34.50;20.63;;;9.90;99.90;;;;;;4993847;28;20062;-76
2022/12/01 12:14:24;;;;;;;34.70;20.45;;;10.10;99.90;;;;;;4976101;28;20139;-77
2022/12/01 12:17:17;;;;;;;34.38;21.52;;;10.10;99.90;;;;;;4993526;28;20058;-78
2022/12/01 12:19:55;;;;;;;32.78;19.92;;;10.20;99.90;;;;;;4993495;28;20563;-77
2022/12/01 12:22:33;;;;;;;35.17;20.25;;;10.30;99.90;;;;;;4993693;28;20093;-78
2022/12/01 12:25:22;;;;;;;33.47;20.33;;;10.30;99.90;;;;;;4993284;28;20084;-78
2022/12/01 12:28:17;;;;;;;32.22;19.10;;;10.40;99.90;;;;;;4992075;28;20097;-78
2022/12/01 12:31:03;;;;;;;30.85;17.88;;;10.40;99.90;;;;;;4992463;28;20133;-77
2022/12/01 12:33:55;;;;;;;33.97;19.90;;;10.50;99.90;;;;;;4993214;28;20572;-75
2022/12/01 12:36:54;;;;;;;29.67;19.95;;;10.50;99.90;;;;;;4971148;28;20441;-77
2022/12/01 12:39:27;;;;;;;33.10;19.75;;;10.60;99.90;;;;;;4971191;28;20043;-75
2022/12/01 12:41:55;;;;;;;34.63;20.88;;;10.70;99.90;;;;;;4971082;28;20055;-78
2022/12/01 12:44:46;;;;;;;35.05;21.38;;;10.60;99.90;;;;;;4971135;28;20058;-77
2022/12/01 12:47:34;;;;;;;37.70;22.00;;;10.60;99.90;;;;;;4970653;28;20504;-77
2022/12/01 12:50:39;;;;;;;39.30;23.60;;;10.70;99.90;;;;;;4971090;28;20051;-79
2022/12/01 12:53:18;;;;;;;39.13;23.67;;;10.70;99.90;;;;;;4984984;28;20053;-76
2022/12/01 12:56:06;;;;;;;42.28;23.23;;;10.80;99.90;;;;;;4990000;28;20090;-77
2022/12/01 12:58:46;;;;;;;39.45;23.33;;;10.50;99.90;;;;;;4990224;28;20050;-79